createdAt,value
2017-12-22T00:00:40.120Z,7.4
2017-12-22T00:01:41.370Z,7.36
2017-12-22T00:02:40.061Z,7.45
2017-12-22T00:03:40.293Z,7.4
2017-12-22T00:04:40.328Z,7.43
2017-12-22T00:05:40.273Z,7.4
2017-12-22T00:06:40.019Z,7.4
2017-12-22T00:07:40.278Z,7.48
2017-12-22T00:08:40.306Z,7.45
2017-12-22T00:09:40.001Z,7.36
2017-12-22T00:10:40.253Z,7.43
2017-12-22T00:11:40.295Z,7.4
2017-12-22T00:12:40.262Z,7.4
2017-12-22T00:13:40.247Z,7.42
2017-12-22T00:14:40.226Z,7.43
2017-12-22T00:15:40.258Z,7.4
2017-12-22T00:16:39.977Z,7.45
2017-12-22T00:17:39.959Z,7.47
2017-12-22T00:18:40.065Z,7.42
2017-12-22T00:19:40.208Z,7.42
2017-12-22T00:20:40.213Z,7.4
2017-12-22T00:21:39.991Z,7.4
2017-12-22T00:22:39.947Z,7.45
2017-12-22T00:23:39.924Z,7.42
2017-12-22T00:24:40.175Z,7.48
2017-12-22T00:25:40.174Z,7.45
2017-12-22T00:26:40.183Z,7.39
2017-12-22T00:27:40.157Z,7.39
2017-12-22T00:28:40.158Z,7.5
2017-12-22T00:29:40.144Z,7.43
2017-12-22T00:30:40.143Z,7.5
2017-12-22T00:31:39.888Z,7.4
2017-12-22T00:32:40.127Z,7.45
2017-12-22T00:33:40.121Z,7.4
2017-12-22T00:34:39.871Z,7.53
2017-12-22T00:35:39.891Z,7.51
2017-12-22T00:36:39.869Z,7.47
2017-12-22T00:37:40.102Z,7.51
2017-12-22T00:38:40.095Z,7.48
2017-12-22T00:39:40.149Z,7.47
2017-12-22T00:40:40.093Z,7.51
2017-12-22T00:41:40.084Z,7.51
2017-12-22T00:42:40.075Z,7.48
2017-12-22T00:43:39.819Z,7.53
2017-12-22T00:44:40.068Z,7.5
2017-12-22T00:45:39.815Z,7.47
2017-12-22T00:46:40.049Z,7.51
2017-12-22T00:47:39.795Z,7.5
2017-12-22T00:48:40.047Z,7.5
2017-12-22T00:49:40.039Z,7.48
2017-12-22T00:50:40.034Z,7.47
2017-12-22T00:51:40.020Z,7.42
2017-12-22T00:52:40.016Z,7.43
2017-12-22T00:53:40.014Z,7.5
2017-12-22T00:54:40.009Z,7.43
2017-12-22T00:55:40.000Z,7.47
2017-12-22T00:56:39.992Z,7.48
2017-12-22T00:57:39.990Z,7.48
2017-12-22T00:58:39.736Z,7.54
2017-12-22T00:59:39.978Z,7.47
2017-12-22T01:00:39.985Z,7.53
2017-12-22T01:01:39.981Z,7.47
2017-12-22T01:02:41.812Z,7.5
2017-12-22T01:03:39.964Z,7.54
2017-12-22T01:04:39.715Z,7.47
2017-12-22T01:05:39.949Z,7.51
2017-12-22T01:06:39.690Z,7.48
2017-12-22T01:07:39.936Z,7.5
2017-12-22T01:08:39.935Z,7.5
2017-12-22T01:09:39.677Z,7.48
2017-12-22T01:10:39.923Z,7.47
2017-12-22T01:11:39.918Z,7.48
2017-12-22T01:12:39.918Z,7.48
2017-12-22T01:13:39.914Z,7.43
2017-12-22T01:14:39.903Z,7.48
2017-12-22T01:15:39.911Z,7.47
2017-12-22T01:16:39.661Z,7.45
2017-12-22T01:17:39.882Z,7.51
2017-12-22T01:18:39.882Z,7.47
2017-12-22T01:19:39.871Z,7.5
2017-12-22T01:20:39.872Z,7.53
2017-12-22T01:21:39.867Z,7.51
2017-12-22T01:22:39.857Z,7.56
2017-12-22T01:23:39.854Z,7.51
2017-12-22T01:24:39.846Z,7.54
2017-12-22T01:25:39.587Z,7.53
2017-12-22T01:26:39.839Z,7.51
2017-12-22T01:27:39.858Z,7.53
2017-12-22T01:28:39.579Z,7.48
2017-12-22T01:29:39.814Z,7.6
2017-12-22T01:30:39.821Z,7.56
2017-12-22T01:31:39.572Z,7.51
2017-12-22T01:32:42.501Z,7.47
2017-12-22T01:33:39.799Z,7.48
2017-12-22T01:34:39.791Z,7.47
2017-12-22T01:35:39.787Z,7.47
2017-12-22T01:36:39.524Z,7.43
2017-12-22T01:37:39.520Z,7.47
2017-12-22T01:38:39.773Z,7.54
2017-12-22T01:39:39.508Z,7.5
2017-12-22T01:40:39.513Z,7.53
2017-12-22T01:41:39.498Z,7.6
2017-12-22T01:42:39.751Z,7.53
2017-12-22T01:43:39.745Z,7.42
2017-12-22T01:44:40.060Z,7.56
2017-12-22T01:45:39.737Z,7.51
2017-12-22T01:46:39.730Z,7.56
2017-12-22T01:47:39.718Z,7.54
2017-12-22T01:48:39.717Z,7.47
2017-12-22T01:49:39.710Z,7.53
2017-12-22T01:50:39.708Z,7.58
2017-12-22T01:51:39.699Z,7.61
2017-12-22T01:52:39.718Z,7.57
2017-12-22T01:53:39.687Z,7.53
2017-12-22T01:54:39.686Z,7.47
2017-12-22T01:55:39.685Z,7.51
2017-12-22T01:56:39.667Z,7.48
2017-12-22T01:57:39.671Z,7.54
2017-12-22T01:58:39.662Z,7.5
2017-12-22T01:59:39.654Z,7.56
2017-12-22T02:00:39.657Z,7.43
2017-12-22T02:01:39.638Z,7.58
2017-12-22T02:02:39.629Z,7.43
2017-12-22T02:03:39.823Z,7.6
2017-12-22T02:04:39.378Z,7.61
2017-12-22T02:05:39.617Z,7.53
2017-12-22T02:06:39.618Z,7.56
2017-12-22T02:07:39.609Z,7.58
2017-12-22T02:08:39.611Z,7.47
2017-12-22T02:09:39.603Z,7.47
2017-12-22T02:10:39.604Z,7.53
2017-12-22T02:11:39.581Z,7.54
2017-12-22T02:12:39.582Z,7.58
2017-12-22T02:13:39.572Z,7.47
2017-12-22T02:14:39.314Z,7.45
2017-12-22T02:15:39.565Z,7.6
2017-12-22T02:16:39.303Z,7.57
2017-12-22T02:17:39.550Z,7.51
2017-12-22T02:18:39.552Z,7.54
2017-12-22T02:19:39.551Z,7.43
2017-12-22T02:20:39.546Z,7.43
2017-12-22T02:21:39.529Z,7.48
2017-12-22T02:22:39.289Z,7.58
2017-12-22T02:23:39.276Z,7.54
2017-12-22T02:24:39.512Z,7.56
2017-12-22T02:25:39.511Z,7.51
2017-12-22T02:26:39.498Z,7.56
2017-12-22T02:27:39.491Z,7.54
2017-12-22T02:28:39.490Z,7.58
2017-12-22T02:29:38.981Z,7.56
2017-12-22T02:30:39.481Z,7.5
2017-12-22T02:31:39.487Z,7.54
2017-12-22T02:32:39.221Z,7.5
2017-12-22T02:33:40.516Z,7.5
2017-12-22T02:34:39.198Z,7.54
2017-12-22T02:35:39.201Z,7.54
2017-12-22T02:36:39.448Z,7.56
2017-12-22T02:37:39.199Z,7.53
2017-12-22T02:38:39.429Z,7.58
2017-12-22T02:39:39.425Z,7.57
2017-12-22T02:40:39.479Z,7.51
2017-12-22T02:41:39.167Z,7.56
2017-12-22T02:42:39.164Z,7.53
2017-12-22T02:43:39.407Z,7.47
2017-12-22T02:44:39.146Z,7.53
2017-12-22T02:45:39.396Z,7.54
2017-12-22T02:46:39.393Z,7.47
2017-12-22T02:47:39.135Z,7.56
2017-12-22T02:48:39.396Z,7.47
2017-12-22T02:49:39.391Z,7.48
2017-12-22T02:50:39.116Z,7.6
2017-12-22T02:51:39.364Z,7.6
2017-12-22T02:52:39.358Z,7.54
2017-12-22T02:53:39.347Z,7.6
2017-12-22T02:54:38.863Z,7.61
2017-12-22T02:55:39.088Z,7.6
2017-12-22T02:56:39.091Z,7.58
2017-12-22T02:57:39.324Z,7.61
2017-12-22T02:58:39.066Z,7.56
2017-12-22T02:59:39.331Z,7.6
2017-12-22T03:00:39.066Z,7.67
2017-12-22T03:01:39.302Z,7.61
2017-12-22T03:02:39.305Z,7.53
2017-12-22T03:03:39.301Z,7.61
2017-12-22T03:04:39.062Z,7.63
2017-12-22T03:05:39.282Z,7.56
2017-12-22T03:06:39.279Z,7.6
2017-12-22T03:07:39.026Z,7.63
2017-12-22T03:08:39.015Z,7.56
2017-12-22T03:09:39.011Z,7.67
2017-12-22T03:10:39.268Z,7.66
2017-12-22T03:11:39.055Z,7.61
2017-12-22T03:12:39.244Z,7.66
2017-12-22T03:13:39.250Z,7.61
2017-12-22T03:14:39.246Z,7.57
2017-12-22T03:15:39.227Z,7.56
2017-12-22T03:16:38.977Z,7.73
2017-12-22T03:17:38.979Z,7.73
2017-12-22T03:18:39.219Z,7.72
2017-12-22T03:19:39.281Z,7.77
2017-12-22T03:20:39.279Z,7.67
2017-12-22T03:21:39.216Z,7.72
2017-12-22T03:22:38.936Z,7.72
2017-12-22T03:23:39.185Z,7.66
2017-12-22T03:24:39.179Z,7.67
2017-12-22T03:25:39.175Z,7.7
2017-12-22T03:26:39.168Z,7.77
2017-12-22T03:27:39.169Z,7.75
2017-12-22T03:28:39.165Z,7.7
2017-12-22T03:29:39.166Z,7.67
2017-12-22T03:30:39.170Z,7.7
2017-12-22T03:31:39.143Z,7.73
2017-12-22T03:32:39.139Z,7.7
2017-12-22T03:33:38.889Z,7.69
2017-12-22T03:34:40.381Z,7.67
2017-12-22T03:35:38.884Z,7.72
2017-12-22T03:36:39.117Z,7.69
2017-12-22T03:37:39.112Z,7.69
2017-12-22T03:38:38.880Z,7.76
2017-12-22T03:39:39.108Z,7.57
2017-12-22T03:40:39.109Z,7.69
2017-12-22T03:41:38.864Z,7.63
2017-12-22T03:42:38.834Z,7.72
2017-12-22T03:43:38.830Z,7.61
2017-12-22T03:44:38.827Z,7.72
2017-12-22T03:45:38.818Z,7.66
2017-12-22T03:46:38.817Z,7.69
2017-12-22T03:47:38.815Z,7.72
2017-12-22T03:48:38.807Z,7.7
2017-12-22T03:49:39.057Z,7.69
2017-12-22T03:50:39.050Z,7.72
2017-12-22T03:51:38.808Z,7.7
2017-12-22T03:52:39.038Z,7.7
2017-12-22T03:53:38.784Z,7.75
2017-12-22T03:54:39.021Z,7.72
2017-12-22T03:55:39.022Z,7.76
2017-12-22T03:56:39.015Z,7.72
2017-12-22T03:57:38.760Z,7.67
2017-12-22T03:58:38.753Z,7.72
2017-12-22T03:59:39.012Z,7.67
2017-12-22T04:00:39.003Z,7.7
2017-12-22T04:01:38.748Z,7.72
2017-12-22T04:02:39.002Z,7.69
2017-12-22T04:03:38.976Z,7.76
2017-12-22T04:04:38.980Z,7.72
2017-12-22T04:05:38.719Z,7.72
2017-12-22T04:06:38.711Z,7.73
2017-12-22T04:07:38.965Z,7.72
2017-12-22T04:08:38.952Z,7.73
2017-12-22T04:09:38.697Z,7.58
2017-12-22T04:10:38.946Z,7.7
2017-12-22T04:11:38.686Z,7.6
2017-12-22T04:12:38.933Z,7.56
2017-12-22T04:13:38.934Z,7.56
2017-12-22T04:14:38.919Z,7.63
2017-12-22T04:15:38.917Z,7.57
2017-12-22T04:16:38.913Z,7.58
2017-12-22T04:17:38.919Z,7.54
2017-12-22T04:18:38.654Z,7.56
2017-12-22T04:19:38.897Z,7.57
2017-12-22T04:20:38.900Z,7.56
2017-12-22T04:21:38.886Z,7.54
2017-12-22T04:22:38.883Z,7.66
2017-12-22T04:23:38.887Z,7.63
2017-12-22T04:24:38.873Z,7.6
2017-12-22T04:25:38.873Z,7.56
2017-12-22T04:26:38.866Z,7.6
2017-12-22T04:27:38.858Z,7.6
2017-12-22T04:28:38.602Z,7.54
2017-12-22T04:29:38.852Z,7.57
2017-12-22T04:30:38.848Z,7.63
2017-12-22T04:31:38.832Z,7.6
2017-12-22T04:32:38.830Z,7.57
2017-12-22T04:33:38.820Z,7.58
2017-12-22T04:34:43.622Z,7.57
2017-12-22T04:35:38.813Z,7.61
2017-12-22T04:36:38.808Z,7.56
2017-12-22T04:37:38.558Z,7.76
2017-12-22T04:38:38.801Z,7.58
2017-12-22T04:39:38.791Z,7.69
2017-12-22T04:40:38.539Z,7.58
2017-12-22T04:41:38.796Z,7.6
2017-12-22T04:42:38.781Z,7.67
2017-12-22T04:43:38.778Z,7.63
2017-12-22T04:44:38.771Z,7.66
2017-12-22T04:45:38.508Z,7.69
2017-12-22T04:46:38.761Z,7.75
2017-12-22T04:47:38.755Z,7.54
2017-12-22T04:48:38.758Z,7.67
2017-12-22T04:49:38.738Z,7.58
2017-12-22T04:50:38.487Z,7.69
2017-12-22T04:51:38.728Z,7.7
2017-12-22T04:52:38.475Z,7.6
2017-12-22T04:53:38.726Z,7.72
2017-12-22T04:54:38.712Z,7.6
2017-12-22T04:55:38.463Z,7.6
2017-12-22T04:56:38.704Z,7.72
2017-12-22T04:57:38.707Z,7.72
2017-12-22T04:58:38.710Z,7.73
2017-12-22T04:59:38.433Z,7.7
2017-12-22T05:00:38.694Z,7.72
2017-12-22T05:01:38.708Z,7.58
2017-12-22T05:02:38.680Z,7.69
2017-12-22T05:03:38.667Z,7.61
2017-12-22T05:04:38.669Z,7.6
2017-12-22T05:05:38.660Z,7.63
2017-12-22T05:06:38.650Z,7.57
2017-12-22T05:07:38.646Z,7.6
2017-12-22T05:08:38.391Z,7.6
2017-12-22T05:09:38.642Z,7.66
2017-12-22T05:10:38.645Z,7.6
2017-12-22T05:11:38.634Z,7.56
2017-12-22T05:12:38.637Z,7.63
2017-12-22T05:13:38.374Z,7.6
2017-12-22T05:14:38.610Z,7.67
2017-12-22T05:15:38.610Z,7.66
2017-12-22T05:16:38.612Z,7.56
2017-12-22T05:17:38.599Z,7.6
2017-12-22T05:18:38.611Z,7.54
2017-12-22T05:19:38.596Z,7.48
2017-12-22T05:20:39.450Z,7.56
2017-12-22T05:21:38.576Z,7.54
2017-12-22T05:22:38.578Z,7.48
2017-12-22T05:23:38.565Z,7.45
2017-12-22T05:24:38.310Z,7.54
2017-12-22T05:25:38.310Z,7.6
2017-12-22T05:26:38.552Z,7.51
2017-12-22T05:27:38.555Z,7.53
2017-12-22T05:28:38.546Z,7.61
2017-12-22T05:29:38.556Z,7.53
2017-12-22T05:30:38.536Z,7.51
2017-12-22T05:31:38.276Z,7.53
2017-12-22T05:32:38.523Z,7.53
2017-12-22T05:33:38.258Z,7.61
2017-12-22T05:34:38.255Z,7.56
2017-12-22T05:35:40.103Z,7.58
2017-12-22T05:36:38.498Z,7.43
2017-12-22T05:37:38.495Z,7.48
2017-12-22T05:38:38.484Z,7.6
2017-12-22T05:39:38.235Z,7.53
2017-12-22T05:40:38.472Z,7.53
2017-12-22T05:41:38.472Z,7.5
2017-12-22T05:42:38.462Z,7.54
2017-12-22T05:43:38.463Z,7.56
2017-12-22T05:44:38.452Z,7.56
2017-12-22T05:45:38.444Z,7.6
2017-12-22T05:46:38.448Z,7.53
2017-12-22T05:47:38.436Z,7.58
2017-12-22T05:48:38.439Z,7.43
2017-12-22T05:49:38.434Z,7.58
2017-12-22T05:50:38.472Z,7.56
2017-12-22T05:51:38.422Z,7.58
2017-12-22T05:52:38.417Z,7.6
2017-12-22T05:53:38.189Z,7.53
2017-12-22T05:54:38.399Z,7.5
2017-12-22T05:55:38.141Z,7.5
2017-12-22T05:56:38.393Z,7.53
2017-12-22T05:57:38.383Z,7.54
2017-12-22T05:58:38.380Z,7.6
2017-12-22T05:59:38.376Z,7.54
2017-12-22T06:00:38.552Z,7.53
2017-12-22T06:01:38.125Z,7.58
2017-12-22T06:02:38.365Z,7.57
2017-12-22T06:03:38.357Z,7.58
2017-12-22T06:04:38.117Z,7.61
2017-12-22T06:05:38.086Z,7.63
2017-12-22T06:06:38.335Z,7.56
2017-12-22T06:07:38.330Z,7.6
2017-12-22T06:08:38.324Z,7.56
2017-12-22T06:09:38.328Z,7.6
2017-12-22T06:10:38.071Z,7.56
2017-12-22T06:11:38.310Z,7.6
2017-12-22T06:12:38.314Z,7.53
2017-12-22T06:13:38.309Z,7.63
2017-12-22T06:14:38.038Z,7.61
2017-12-22T06:15:38.289Z,7.61
2017-12-22T06:16:38.289Z,7.6
2017-12-22T06:17:38.023Z,7.63
2017-12-22T06:18:38.273Z,7.56
2017-12-22T06:19:38.015Z,7.63
2017-12-22T06:20:38.270Z,7.63
2017-12-22T06:21:39.362Z,7.63
2017-12-22T06:22:38.251Z,7.67
2017-12-22T06:23:38.253Z,7.6
2017-12-22T06:24:38.238Z,7.6
2017-12-22T06:25:38.249Z,7.61
2017-12-22T06:26:37.973Z,7.58
2017-12-22T06:27:38.220Z,7.6
2017-12-22T06:28:38.219Z,7.58
2017-12-22T06:29:38.214Z,7.66
2017-12-22T06:30:38.209Z,7.56
2017-12-22T06:31:38.232Z,7.63
2017-12-22T06:32:38.198Z,7.66
2017-12-22T06:33:37.936Z,7.58
2017-12-22T06:34:37.933Z,7.5
2017-12-22T06:35:38.178Z,7.53
2017-12-22T06:36:41.425Z,7.58
2017-12-22T06:37:38.167Z,7.63
2017-12-22T06:38:38.176Z,7.58
2017-12-22T06:39:37.922Z,7.56
2017-12-22T06:40:37.900Z,7.57
2017-12-22T06:41:38.159Z,7.57
2017-12-22T06:42:38.152Z,7.58
2017-12-22T06:43:38.137Z,7.67
2017-12-22T06:44:38.132Z,7.6
2017-12-22T06:45:38.174Z,7.57
2017-12-22T06:46:38.126Z,7.6
2017-12-22T06:47:37.874Z,7.72
2017-12-22T06:48:38.112Z,7.69
2017-12-22T06:49:38.116Z,7.67
2017-12-22T06:50:38.114Z,7.72
2017-12-22T06:51:38.097Z,7.73
2017-12-22T06:52:37.837Z,7.7
2017-12-22T06:53:38.088Z,7.79
2017-12-22T06:54:37.831Z,7.67
2017-12-22T06:55:38.081Z,7.7
2017-12-22T06:56:38.071Z,7.77
2017-12-22T06:57:37.810Z,7.72
2017-12-22T06:58:38.062Z,7.76
2017-12-22T06:59:38.058Z,7.79
2017-12-22T07:00:38.055Z,7.7
2017-12-22T07:01:38.055Z,7.82
2017-12-22T07:02:38.039Z,7.77
2017-12-22T07:03:38.044Z,7.76
2017-12-22T07:04:38.038Z,7.77
2017-12-22T07:05:37.780Z,7.82
2017-12-22T07:06:37.772Z,7.76
2017-12-22T07:07:38.027Z,7.66
2017-12-22T07:08:37.760Z,7.72
2017-12-22T07:09:38.009Z,7.73
2017-12-22T07:10:37.755Z,7.75
2017-12-22T07:11:37.807Z,7.7
2017-12-22T07:12:37.741Z,7.69
2017-12-22T07:13:37.476Z,7.67
2017-12-22T07:14:37.979Z,7.73
2017-12-22T07:15:37.978Z,7.69
2017-12-22T07:16:37.972Z,7.73
2017-12-22T07:17:37.712Z,7.82
2017-12-22T07:18:37.972Z,7.77
2017-12-22T07:19:37.961Z,7.7
2017-12-22T07:20:37.955Z,7.66
2017-12-22T07:21:37.949Z,7.72
2017-12-22T07:22:37.687Z,7.75
2017-12-22T07:23:37.935Z,7.77
2017-12-22T07:24:37.683Z,7.79
2017-12-22T07:25:37.920Z,7.79
2017-12-22T07:26:37.922Z,7.82
2017-12-22T07:27:37.922Z,7.76
2017-12-22T07:28:37.900Z,7.79
2017-12-22T07:29:37.920Z,7.82
2017-12-22T07:30:37.909Z,7.79
2017-12-22T07:31:37.638Z,7.8
2017-12-22T07:32:37.880Z,7.79
2017-12-22T07:33:37.881Z,7.87
2017-12-22T07:34:37.875Z,7.82
2017-12-22T07:35:37.866Z,7.8
2017-12-22T07:36:37.610Z,7.8
2017-12-22T07:37:41.120Z,7.82
2017-12-22T07:38:37.853Z,7.91
2017-12-22T07:39:37.601Z,7.87
2017-12-22T07:40:37.585Z,7.87
2017-12-22T07:41:37.578Z,7.91
2017-12-22T07:42:37.576Z,7.94
2017-12-22T07:43:37.835Z,7.87
2017-12-22T07:44:37.565Z,7.85
2017-12-22T07:45:37.813Z,7.93
2017-12-22T07:46:37.812Z,7.9
2017-12-22T07:47:37.554Z,7.95
2017-12-22T07:48:37.549Z,7.85
2017-12-22T07:49:37.539Z,7.93
2017-12-22T07:50:37.538Z,7.94
2017-12-22T07:51:37.532Z,7.9
2017-12-22T07:52:38.580Z,7.97
2017-12-22T07:53:37.517Z,7.91
2017-12-22T07:54:37.860Z,7.91
2017-12-22T07:55:37.791Z,7.95
2017-12-22T07:56:37.548Z,7.95
2017-12-22T07:57:37.764Z,7.93
2017-12-22T07:58:37.746Z,8
2017-12-22T07:59:37.747Z,8.01
2017-12-22T08:00:37.482Z,8.06
2017-12-22T08:01:37.735Z,7.97
2017-12-22T08:02:37.733Z,8.08
2017-12-22T08:03:37.734Z,8.03
2017-12-22T08:04:37.717Z,8.09
2017-12-22T08:05:37.459Z,8.03
2017-12-22T08:06:37.708Z,7.98
2017-12-22T08:07:37.702Z,8.05
2017-12-22T08:08:37.444Z,8.01
2017-12-22T08:09:37.693Z,8.1
2017-12-22T08:10:37.492Z,8.18
2017-12-22T08:11:37.680Z,8.15
2017-12-22T08:12:37.681Z,8.15
2017-12-22T08:13:37.671Z,8.23
2017-12-22T08:14:37.409Z,8.19
2017-12-22T08:15:37.412Z,8.15
2017-12-22T08:16:37.148Z,8.19
2017-12-22T08:17:37.650Z,8.16
2017-12-22T08:18:37.643Z,8.23
2017-12-22T08:19:37.657Z,8.23
2017-12-22T08:20:37.636Z,8.26
2017-12-22T08:21:37.678Z,8.19
2017-12-22T08:22:37.623Z,8.28
2017-12-22T08:23:38.678Z,8.31
2017-12-22T08:24:37.615Z,8.2
2017-12-22T08:25:37.610Z,8.23
2017-12-22T08:26:37.352Z,8.2
2017-12-22T08:27:37.348Z,8.24
2017-12-22T08:28:37.595Z,8.19
2017-12-22T08:29:37.347Z,8.23
2017-12-22T08:30:37.146Z,8.2
2017-12-22T08:31:37.655Z,8.19
2017-12-22T08:32:37.586Z,8.31
2017-12-22T08:33:37.623Z,8.26
2017-12-22T08:34:37.568Z,8.23
2017-12-22T08:35:37.562Z,8.3
2017-12-22T08:37:37.559Z,8.2
2017-12-22T08:38:40.256Z,8.24
2017-12-22T08:39:37.287Z,8.24
2017-12-22T08:40:37.543Z,8.27
2017-12-22T08:41:37.029Z,8.31
2017-12-22T08:42:37.529Z,8.3
2017-12-22T08:43:37.524Z,8.33
2017-12-22T08:44:37.526Z,8.41
2017-12-22T08:45:37.270Z,8.33
2017-12-22T08:46:37.512Z,8.3
2017-12-22T08:47:37.503Z,8.34
2017-12-22T08:48:37.498Z,8.44
2017-12-22T08:49:37.490Z,8.41
2017-12-22T08:50:37.494Z,8.38
2017-12-22T08:51:37.234Z,8.44
2017-12-22T08:52:37.488Z,8.41
2017-12-22T08:53:36.972Z,8.46
2017-12-22T08:54:37.472Z,8.46
2017-12-22T08:55:37.473Z,8.42
2017-12-22T08:56:37.490Z,8.37
2017-12-22T08:57:37.251Z,8.46
2017-12-22T08:58:37.463Z,8.46
2017-12-22T08:59:37.250Z,8.49
2017-12-22T09:00:37.441Z,8.48
2017-12-22T09:01:37.457Z,8.53
2017-12-22T09:02:37.463Z,8.52
2017-12-22T09:03:37.432Z,8.56
2017-12-22T09:04:37.436Z,8.58
2017-12-22T09:05:37.419Z,8.58
2017-12-22T09:06:37.431Z,8.56
2017-12-22T09:07:37.474Z,8.71
2017-12-22T09:08:37.408Z,8.71
2017-12-22T09:09:37.406Z,8.78
2017-12-22T09:10:37.404Z,8.82
2017-12-22T09:11:37.404Z,8.88
2017-12-22T09:12:37.144Z,8.94
2017-12-22T09:13:37.144Z,8.92
2017-12-22T09:14:37.392Z,8.91
2017-12-22T09:15:37.388Z,8.89
2017-12-22T09:16:37.379Z,8.94
2017-12-22T09:17:37.382Z,8.88
2017-12-22T09:18:37.370Z,8.92
2017-12-22T09:19:37.361Z,8.89
2017-12-22T09:20:37.114Z,8.88
2017-12-22T09:21:37.356Z,8.82
2017-12-22T09:22:37.364Z,8.84
2017-12-22T09:23:37.096Z,8.87
2017-12-22T09:24:39.193Z,8.73
2017-12-22T09:25:37.083Z,8.71
2017-12-22T09:26:37.336Z,8.71
2017-12-22T09:27:37.327Z,8.73
2017-12-22T09:28:37.076Z,8.76
2017-12-22T09:29:37.067Z,8.55
2017-12-22T09:30:37.332Z,8.64
2017-12-22T09:31:37.102Z,8.53
2017-12-22T09:32:37.116Z,8.6
2017-12-22T09:33:37.061Z,8.58
2017-12-22T09:34:37.304Z,8.58
2017-12-22T09:35:37.356Z,8.58
2017-12-22T09:36:37.042Z,8.56
2017-12-22T09:37:37.302Z,8.52
2017-12-22T09:38:37.033Z,8.53
2017-12-22T09:39:39.999Z,8.56
2017-12-22T09:40:37.080Z,8.6
2017-12-22T09:41:37.269Z,8.56
2017-12-22T09:42:37.264Z,8.67
2017-12-22T09:43:37.266Z,8.6
2017-12-22T09:44:37.325Z,8.64
2017-12-22T09:45:37.253Z,8.58
2017-12-22T09:46:36.747Z,8.67
2017-12-22T09:47:37.304Z,8.67
2017-12-22T09:48:36.738Z,8.63
2017-12-22T09:49:36.733Z,8.66
2017-12-22T09:50:37.230Z,8.67
2017-12-22T09:51:37.223Z,8.67
2017-12-22T09:52:37.220Z,8.69
2017-12-22T09:53:37.017Z,8.7
2017-12-22T09:54:36.971Z,8.76
2017-12-22T09:55:36.704Z,8.76
2017-12-22T09:56:37.203Z,8.85
2017-12-22T09:57:36.951Z,8.74
2017-12-22T09:58:37.195Z,8.79
2017-12-22T09:59:37.198Z,8.87
2017-12-22T10:00:37.188Z,8.84
2017-12-22T10:01:37.187Z,8.91
2017-12-22T10:02:36.924Z,8.89
2017-12-22T10:03:37.173Z,8.95
2017-12-22T10:04:37.171Z,8.88
2017-12-22T10:05:36.923Z,8.88
2017-12-22T10:06:37.172Z,8.89
2017-12-22T10:07:36.660Z,8.85
2017-12-22T10:08:36.898Z,8.85
2017-12-22T10:09:36.923Z,8.85
2017-12-22T10:10:37.144Z,8.85
2017-12-22T10:11:36.638Z,8.92
2017-12-22T10:12:37.144Z,8.91
2017-12-22T10:13:37.133Z,8.87
2017-12-22T10:14:37.130Z,8.92
2017-12-22T10:15:36.870Z,8.94
2017-12-22T10:16:36.902Z,8.89
2017-12-22T10:17:36.871Z,8.97
2017-12-22T10:18:37.115Z,9.02
2017-12-22T10:19:36.873Z,8.92
2017-12-22T10:20:37.337Z,8.99
2017-12-22T10:21:36.850Z,9.06
2017-12-22T10:52:16.528Z,9.1
2017-12-22T10:53:15.977Z,9.14
2017-12-22T10:54:15.962Z,9.21
2017-12-22T10:55:17.032Z,9.14
2017-12-22T10:56:15.700Z,9.22
2017-12-22T10:57:16.374Z,9.22
2017-12-22T10:58:15.916Z,9.21
2017-12-22T10:59:15.907Z,9.14
2017-12-22T11:00:17.005Z,9.25
2017-12-22T11:01:15.897Z,9.18
2017-12-22T11:02:16.145Z,9.25
2017-12-22T11:03:15.886Z,9.19
2017-12-22T11:04:15.621Z,9.16
2017-12-22T11:05:16.872Z,9.16
2017-12-22T11:06:15.877Z,9.18
2017-12-22T11:07:16.652Z,9.26
2017-12-22T11:08:15.871Z,9.28
2017-12-22T11:09:15.848Z,9.32
2017-12-22T11:10:16.628Z,9.31
2017-12-22T11:11:15.856Z,9.34
2017-12-22T11:12:18.233Z,9.32
2017-12-22T11:13:15.828Z,9.36
2017-12-22T11:14:15.830Z,9.29
2017-12-22T11:15:17.197Z,9.25
2017-12-22T11:16:15.821Z,9.36
2017-12-22T11:17:15.307Z,9.26
2017-12-22T11:18:15.553Z,9.32
2017-12-22T11:19:15.801Z,9.31
2017-12-22T11:20:17.161Z,9.39
2017-12-22T11:21:15.802Z,9.37
2017-12-22T11:22:18.989Z,9.39
2017-12-22T11:23:15.802Z,9.37
2017-12-22T11:24:15.783Z,9.44
2017-12-22T11:25:17.221Z,9.44
2017-12-22T11:26:15.793Z,9.37
2017-12-22T11:27:15.763Z,9.39
2017-12-22T11:28:15.515Z,9.37
2017-12-22T11:29:15.760Z,9.39
2017-12-22T11:30:16.367Z,9.36
2017-12-22T11:31:15.243Z,9.4
2017-12-22T11:32:15.494Z,9.5
2017-12-22T11:33:15.753Z,9.48
2017-12-22T11:34:15.497Z,9.46
2017-12-22T11:35:16.208Z,9.55
2017-12-22T11:36:15.747Z,9.55
2017-12-22T11:37:15.474Z,9.54
2017-12-22T11:38:15.740Z,9.55
2017-12-22T11:39:15.471Z,9.54
2017-12-22T11:40:16.529Z,9.55
2017-12-22T11:41:15.732Z,9.55
2017-12-22T11:42:15.707Z,9.54
2017-12-22T11:43:15.450Z,9.55
2017-12-22T11:44:15.701Z,9.65
2017-12-22T11:45:16.782Z,9.66
2017-12-22T11:46:15.713Z,9.76
2017-12-22T11:47:15.443Z,9.72
2017-12-22T11:48:16.200Z,9.69
2017-12-22T11:49:15.435Z,9.73
2017-12-22T11:50:16.598Z,9.76
2017-12-22T11:51:15.429Z,9.76
2017-12-22T11:52:15.426Z,9.74
2017-12-22T11:53:16.231Z,9.77
2017-12-22T11:54:15.417Z,9.76
2017-12-22T11:55:16.932Z,9.74
2017-12-22T11:56:15.675Z,9.76
2017-12-22T11:57:15.419Z,9.77
2017-12-22T11:58:15.656Z,9.73
2017-12-22T11:59:15.411Z,9.77
2017-12-22T12:00:17.409Z,9.76
2017-12-22T12:01:15.656Z,9.76
2017-12-22T12:02:15.389Z,9.73
2017-12-22T12:03:15.642Z,9.72
2017-12-22T12:04:15.386Z,9.66
2017-12-22T12:05:16.956Z,9.65
2017-12-22T12:06:15.412Z,9.61
2017-12-22T12:07:15.630Z,9.65
2017-12-22T12:08:17.029Z,9.61
2017-12-22T12:09:15.365Z,9.56
2017-12-22T12:10:17.184Z,9.55
2017-12-22T12:11:15.617Z,9.55
2017-12-22T12:12:15.625Z,9.55
2017-12-22T12:13:15.608Z,9.55
2017-12-22T12:14:15.603Z,9.64
2017-12-22T12:15:16.267Z,9.62
2017-12-22T12:16:15.365Z,9.59
2017-12-22T12:17:15.352Z,9.66
2017-12-22T12:18:15.335Z,9.61
2017-12-22T12:19:15.085Z,9.65
2017-12-22T12:20:16.639Z,9.62
2017-12-22T12:21:15.591Z,9.72
2017-12-22T12:22:15.578Z,9.64
2017-12-22T12:23:15.327Z,9.62
2017-12-22T12:24:15.328Z,9.72
2017-12-22T12:25:17.406Z,9.74
2017-12-22T12:26:15.311Z,9.74
2017-12-22T12:27:15.064Z,9.66
2017-12-22T12:28:15.563Z,9.59
2017-12-22T12:29:15.559Z,9.74
2017-12-22T12:30:16.521Z,9.73
2017-12-22T12:31:15.304Z,9.59
2017-12-22T12:32:15.547Z,9.69
2017-12-22T12:33:15.546Z,9.65
2017-12-22T12:34:15.539Z,9.61
2017-12-22T12:35:16.772Z,9.68
2017-12-22T12:36:15.535Z,9.65
2017-12-22T12:37:15.286Z,9.61
2017-12-22T12:38:15.537Z,9.61
2017-12-22T12:39:15.064Z,9.66
2017-12-22T12:40:16.907Z,9.56
2017-12-22T12:41:15.256Z,9.62
2017-12-22T12:42:15.511Z,9.61
2017-12-22T12:43:15.608Z,9.55
2017-12-22T12:44:15.252Z,9.59
2017-12-22T12:45:16.619Z,9.55
2017-12-22T12:46:15.509Z,9.58
2017-12-22T12:47:15.513Z,9.55
2017-12-22T12:48:15.232Z,9.55
2017-12-22T12:49:15.487Z,9.5
2017-12-22T12:50:16.521Z,9.54
2017-12-22T12:51:15.501Z,9.55
2017-12-22T12:52:15.491Z,9.58
2017-12-22T12:53:15.490Z,9.61
2017-12-22T12:54:16.125Z,9.55
2017-12-22T12:55:16.175Z,9.5
2017-12-22T12:56:15.467Z,9.59
2017-12-22T12:57:15.464Z,9.54
2017-12-22T12:58:15.465Z,9.51
2017-12-22T12:59:15.454Z,9.5
2017-12-22T13:00:17.131Z,9.47
2017-12-22T13:01:15.219Z,9.48
2017-12-22T13:02:15.450Z,9.44
2017-12-22T13:03:15.449Z,9.4
2017-12-22T13:04:15.494Z,9.39
2017-12-22T13:05:15.897Z,9.47
2017-12-22T13:06:15.439Z,9.39
2017-12-22T13:07:15.185Z,9.37
2017-12-22T13:08:15.433Z,9.47
2017-12-22T13:09:16.038Z,9.44
2017-12-22T13:10:16.534Z,9.44
2017-12-22T13:11:15.439Z,9.4
2017-12-22T13:12:15.434Z,9.41
2017-12-22T13:13:15.149Z,9.41
2017-12-22T13:14:15.398Z,9.43
2017-12-22T13:15:17.078Z,9.41
2017-12-22T13:16:15.402Z,9.44
2017-12-22T13:17:15.129Z,9.36
2017-12-22T13:18:15.395Z,9.47
2017-12-22T13:19:15.150Z,9.44
2017-12-22T13:20:16.511Z,9.37
2017-12-22T13:21:15.377Z,9.4
2017-12-22T13:22:15.384Z,9.46
2017-12-22T13:23:15.362Z,9.48
2017-12-22T13:24:16.476Z,9.44
2017-12-22T13:25:16.601Z,9.4
2017-12-22T13:26:15.377Z,9.46
2017-12-22T13:27:15.373Z,9.54
2017-12-22T13:28:15.102Z,9.54
2017-12-22T13:29:15.343Z,9.54
2017-12-22T13:30:16.338Z,9.55
2017-12-22T13:31:15.085Z,9.58
2017-12-22T13:32:15.074Z,9.54
2017-12-22T13:33:15.337Z,9.54
2017-12-22T13:34:15.323Z,9.58
2017-12-22T13:35:16.562Z,9.58
2017-12-22T13:36:15.326Z,9.64
2017-12-22T13:37:15.342Z,9.66
2017-12-22T13:38:15.074Z,9.72
2017-12-22T13:39:15.055Z,9.62
2017-12-22T13:40:16.869Z,9.76
2017-12-22T13:41:15.297Z,9.65
2017-12-22T13:42:15.294Z,9.69
2017-12-22T13:43:15.305Z,9.73
2017-12-22T13:44:15.284Z,9.72
2017-12-22T13:45:16.506Z,9.68
2017-12-22T13:46:15.303Z,9.72
2017-12-22T13:47:15.274Z,9.74
2017-12-22T13:48:15.275Z,9.79
2017-12-22T13:49:15.285Z,9.77
2017-12-22T13:50:16.346Z,9.77
2017-12-22T13:51:15.267Z,9.86
2017-12-22T13:52:15.259Z,9.8
2017-12-22T13:53:15.272Z,9.89